Impacts METAR Board
IDs:

KMSP - Minneapolis-St Paul, MN, US

Updated at: 0900 UTC 25 May 2020
Potential Impact None Slight Moderate High
Time 24/21Z 24/22Z 24/23Z 25/00Z 25/01Z 25/02Z 25/03Z 25/04Z 25/05Z 25/06Z 25/07Z 25/08Z 25/09Z
Temp77 76 76 75 74 73 73 72 70 68 67 68 67
Dewpt60 59 60 63 64 63 63 64 64 65 65 64 64
Altim29.79 29.79 29.78 29.79 29.79 29.80 29.82 29.82 29.83 29.81 29.82 29.82 29.83
VIS10 10 10 10 10 10 10 10 10 10 10 10 10
CIG70 50 50 44 46 44 55 210 210 210 210 200 190
CoverBKNOVCOVCOVCOVCBKNBKNBKNBKNBKNBKNBKNBKN
FltCatVFRVFRVFRVFRVFRVFRVFRVFRVFRVFRVFRVFRVFR
WX--------------------------
WDir190190170160150130180240220180180200210
WSpd9 5 5 3 4 5 4 4 3 5 3 3 3
WGst-- -- -- -- -- -- -- -- -- -- -- -- --
Raw hourly METARs
KMSP 242053Z 19009KT 10SM SCT047 BKN070 BKN250 25/16 A2979 RMK AO2 SLP085 T02500156 58008
KMSP 242153Z 19005KT 10SM BKN050 OVC070 24/15 A2979 RMK AO2 SLP083 T02440150
KMSP 242253Z 17005KT 10SM BKN050 OVC060 24/16 A2978 RMK AO2 SLP081 T02440156
KMSP 242353Z 16003KT 10SM BKN044 OVC060 24/17 A2979 RMK AO2 SLP085 T02390172 10256 20222 53000
KMSP 250053Z 15004KT 10SM BKN046 OVC060 23/18 A2979 RMK AO2 SLP084 T02330178
KMSP 250153Z 13005KT 10SM BKN044 BKN250 23/17 A2980 RMK AO2 SLP086 T02280172
KMSP 250253Z 18004KT 10SM FEW042 BKN055 23/17 A2982 RMK AO2 SLP096 T02280172 53011
KMSP 250353Z 24004KT 10SM SCT049 BKN210 22/18 A2982 RMK AO2 SLP095 T02220178
KMSP 250453Z 22003KT 10SM SCT055 BKN210 21/18 A2983 RMK AO2 SLP097 T02110178
KMSP 250553Z 18005KT 10SM SCT050 BKN210 20/18 A2981 RMK AO2 SLP093 T02000183 10239 20200 402560144 58004
KMSP 250653Z 18003KT 10SM SCT050 BKN210 19/18 A2982 RMK AO2 SLP093 T01940183
KMSP 250753Z 20003KT 10SM BKN200 20/18 A2982 RMK AO2 SLP094 T02000178
KMSP 250853Z 21003KT 10SM BKN190 19/18 A2983 RMK AO2 SLP097 T01940178 53006



Page loaded:  09:24 UTC  |   02:24 AM Pacific  |   03:24 AM Mountain  |   04:24 AM Central  |   05:24 AM Eastern

 

ADVISORIES

FORECASTS

FORECASTS

OBSERVATIONS

USER TOOLS

ABOUT US